createdAt,value
2019-04-21T00:00:24.500Z,3.83
2019-04-21T00:03:07.441Z,3.52
2019-04-21T00:05:58.850Z,3.33
2019-04-21T00:08:50.847Z,4.20
2019-04-21T00:13:42.651Z,3.67
2019-04-21T00:16:07.596Z,3.40
2019-04-21T00:19:08.418Z,3.55
2019-04-21T00:21:43.343Z,3.47
2019-04-21T00:24:24.996Z,3.60
2019-04-21T00:27:05.291Z,3.67
2019-04-21T00:29:47.837Z,3.75
2019-04-21T00:32:16.695Z,3.40
2019-04-21T00:34:41.985Z,3.37
2019-04-21T00:37:25.966Z,3.60
2019-04-21T00:40:14.465Z,3.70
2019-04-21T00:42:43.662Z,3.72
2019-04-21T00:48:16.615Z,3.87
2019-04-21T00:51:15.010Z,3.62
2019-04-21T00:53:41.782Z,4.15
2019-04-21T00:56:13.514Z,3.60
2019-04-21T00:58:46.250Z,3.87
2019-04-21T01:01:22.263Z,4.05
2019-04-21T01:03:58.109Z,3.80
2019-04-21T01:06:38.021Z,3.83
2019-04-21T01:09:10.804Z,3.83
2019-04-21T01:11:49.221Z,3.90
2019-04-21T01:14:32.724Z,4.20
2019-04-21T01:17:02.232Z,3.55
2019-04-21T01:19:36.242Z,4.03
2019-04-21T01:21:50.982Z,3.80
2019-04-21T01:24:29.450Z,3.95
2019-04-21T01:27:12.703Z,3.50
2019-04-21T01:29:59.889Z,3.37
2019-04-21T01:32:37.419Z,3.47
2019-04-21T01:35:15.090Z,3.80
2019-04-21T01:37:56.006Z,4.10
2019-04-21T01:40:43.062Z,3.77
2019-04-21T01:43:11.545Z,3.92
2019-04-21T01:45:44.830Z,3.70
2019-04-21T01:48:16.721Z,3.90
2019-04-21T01:50:58.162Z,3.70
2019-04-21T01:53:42.469Z,4.08
2019-04-21T01:56:35.658Z,3.50
2019-04-21T01:59:01.537Z,3.95
2019-04-21T02:01:47.205Z,3.55
2019-04-21T02:04:34.762Z,3.70
2019-04-21T02:07:02.788Z,3.62
2019-04-21T02:09:38.145Z,4.35
2019-04-21T02:12:19.954Z,3.90
2019-04-21T02:15:03.265Z,4.22
2019-04-21T02:17:27.974Z,3.85
2019-04-21T02:20:00.604Z,4.20
2019-04-21T02:22:59.158Z,3.95
2019-04-21T02:25:23.142Z,4.12
2019-04-21T02:28:01.149Z,4.03
2019-04-21T02:30:45.689Z,4.42
2019-04-21T02:33:32.403Z,3.95
2019-04-21T02:36:02.785Z,4.20
2019-04-21T02:38:39.355Z,4.30
2019-04-21T02:41:05.829Z,4.05
2019-04-21T02:46:37.896Z,4.70
2019-04-21T02:54:45.716Z,4.15
2019-04-21T02:56:57.250Z,3.80
2019-04-21T02:59:49.395Z,6.65
2019-04-21T03:02:34.904Z,6.20
2019-04-21T03:05:11.633Z,6.03
2019-04-21T03:07:46.389Z,5.10
2019-04-21T03:10:20.466Z,5.33
2019-04-21T03:12:54.836Z,4.65
2019-04-21T03:15:47.329Z,4.55
2019-04-21T03:18:13.294Z,4.40
2019-04-21T03:20:48.175Z,4.15
2019-04-21T03:23:29.727Z,4.25
2019-04-21T03:26:00.964Z,4.55
2019-04-21T03:28:39.673Z,4.72
2019-04-21T03:39:18.260Z,4.85
2019-04-21T03:44:14.570Z,4.75
2019-04-21T03:49:45.531Z,5.30
2019-04-21T03:52:11.974Z,4.17
2019-04-21T03:55:41.465Z,4.15
2019-04-21T04:06:20.171Z,4.33
2019-04-21T04:11:41.415Z,4.10
2019-04-21T04:14:16.186Z,4.92
2019-04-21T04:19:26.353Z,4.50
2019-04-21T04:22:09.241Z,4.97
2019-04-21T04:27:20.557Z,4.87
2019-04-21T04:30:08.117Z,4.78
2019-04-21T04:32:23.222Z,5.35
2019-04-21T04:35:03.366Z,4.72
2019-04-21T04:37:38.340Z,4.78
2019-04-21T04:40:19.688Z,4.72
2019-04-21T04:43:13.244Z,4.67
2019-04-21T04:45:49.878Z,4.58
2019-04-21T04:53:42.674Z,4.75
2019-04-21T04:56:10.479Z,4.90
2019-04-21T04:59:27.285Z,4.92
2019-04-21T05:01:38.175Z,4.47
2019-04-21T05:09:13.222Z,4.33
2019-04-21T05:11:51.889Z,4.83
2019-04-21T05:17:08.578Z,4.90
2019-04-21T05:19:53.897Z,4.90
2019-04-21T05:24:44.307Z,4.42
2019-04-21T05:27:34.984Z,4.67
2019-04-21T05:30:22.030Z,4.70
2019-04-21T05:32:59.957Z,4.65
2019-04-21T05:35:51.877Z,5.22
2019-04-21T05:38:27.188Z,4.62
2019-04-21T05:40:55.179Z,5.08
2019-04-21T05:43:39.001Z,4.55
2019-04-21T05:46:21.343Z,4.72
2019-04-21T05:49:05.046Z,5.08
2019-04-21T05:51:37.365Z,4.70
2019-04-21T05:54:27.065Z,4.72
2019-04-21T05:56:57.254Z,4.40
2019-04-21T05:59:33.958Z,4.90
2019-04-21T06:02:18.449Z,4.70
2019-04-21T06:10:21.867Z,4.87
2019-04-21T06:12:43.102Z,5.10
2019-04-21T06:15:14.115Z,4.70
2019-04-21T06:17:57.829Z,5.03
2019-04-21T06:20:27.109Z,4.90
2019-04-21T06:23:04.818Z,5.03
2019-04-21T06:25:55.467Z,5.28
2019-04-21T06:28:19.268Z,4.70
2019-04-21T06:31:05.530Z,4.83
2019-04-21T06:33:36.378Z,4.95
2019-04-21T06:41:33.853Z,5.00
2019-04-21T06:44:16.803Z,5.40
2019-04-21T06:47:13.883Z,4.87
2019-04-21T06:49:28.145Z,5.37
2019-04-21T06:52:11.542Z,5.00
2019-04-21T06:54:40.953Z,5.65
2019-04-21T06:57:16.962Z,5.22
2019-04-21T06:59:51.047Z,5.10
2019-04-21T07:02:42.264Z,5.25
2019-04-21T07:05:07.572Z,5.15
2019-04-21T07:07:50.497Z,5.25
2019-04-21T07:10:22.528Z,5.12
2019-04-21T07:12:51.055Z,5.08
2019-04-21T07:15:36.908Z,5.60
2019-04-21T07:18:15.755Z,5.12
2019-04-21T07:20:49.018Z,4.95
2019-04-21T07:23:26.106Z,5.12
2019-04-21T07:25:58.152Z,4.83
2019-04-21T07:28:40.365Z,4.65
2019-04-21T07:31:23.203Z,4.90
2019-04-21T07:36:30.528Z,5.37
2019-04-21T07:38:58.348Z,4.65
2019-04-21T07:41:30.995Z,4.87
2019-04-21T07:44:06.235Z,4.65
2019-04-21T07:46:41.671Z,4.47
2019-04-21T07:49:40.049Z,4.60
2019-04-21T07:52:50.075Z,4.50
2019-04-21T07:55:18.631Z,4.50
2019-04-21T07:58:02.691Z,4.50
2019-04-21T08:00:36.810Z,4.15
2019-04-21T08:03:19.410Z,4.80
2019-04-21T08:05:45.791Z,4.30
2019-04-21T08:08:15.941Z,3.52
2019-04-21T08:10:56.721Z,3.72
2019-04-21T08:13:39.234Z,4.00
2019-04-21T08:16:20.058Z,3.70
2019-04-21T08:18:53.558Z,3.75
2019-04-21T08:21:28.037Z,3.50
2019-04-21T08:24:04.711Z,3.58
2019-04-21T08:26:58.594Z,3.50
2019-04-21T08:29:33.083Z,3.00
2019-04-21T08:32:00.881Z,3.05
2019-04-21T08:34:31.993Z,2.83
2019-04-21T08:37:08.775Z,3.15
2019-04-21T08:39:49.652Z,2.80
2019-04-21T08:42:18.521Z,3.33
2019-04-21T08:44:54.182Z,2.87
2019-04-21T08:47:36.478Z,2.90
2019-04-21T08:50:07.996Z,3.02
2019-04-21T08:52:52.223Z,2.80
2019-04-21T08:55:39.988Z,3.17
2019-04-21T08:58:32.216Z,2.62
2019-04-21T09:01:10.332Z,2.98
2019-04-21T09:03:56.102Z,2.80
2019-04-21T09:06:52.545Z,2.62
2019-04-21T09:09:04.671Z,2.90
2019-04-21T09:11:42.102Z,2.90
2019-04-21T09:14:20.772Z,2.62
2019-04-21T09:16:53.467Z,2.50
2019-04-21T09:19:44.336Z,2.87
2019-04-21T09:22:07.031Z,2.60
2019-04-21T09:24:49.249Z,2.92
2019-04-21T09:27:23.125Z,3.60
2019-04-21T09:29:47.345Z,3.17
2019-04-21T09:32:20.498Z,3.67
2019-04-21T09:34:52.727Z,3.25
2019-04-21T09:37:39.708Z,3.77
2019-04-21T09:40:07.121Z,3.52
2019-04-21T09:42:53.461Z,3.30
2019-04-21T09:45:22.943Z,3.10
2019-04-21T09:48:07.531Z,3.47
2019-04-21T09:50:38.299Z,3.30
2019-04-21T09:53:24.920Z,3.00
2019-04-21T09:55:58.422Z,3.00
2019-04-21T09:58:39.843Z,3.05
2019-04-21T10:01:19.795Z,2.92
2019-04-21T10:03:53.316Z,3.60
2019-04-21T10:06:26.065Z,3.10
2019-04-21T10:09:04.732Z,3.52
2019-04-21T10:11:41.667Z,3.00
2019-04-21T10:14:18.092Z,3.70
2019-04-21T10:17:17.465Z,3.20
2019-04-21T10:19:56.411Z,3.22
2019-04-21T10:22:33.021Z,3.20
2019-04-21T10:25:12.386Z,3.95
2019-04-21T10:27:49.508Z,3.65
2019-04-21T10:30:26.678Z,3.60
2019-04-21T10:33:04.009Z,3.40
2019-04-21T10:35:39.272Z,3.50
2019-04-21T10:38:24.011Z,3.58
2019-04-21T10:40:51.596Z,3.10
2019-04-21T10:43:27.451Z,3.17
2019-04-21T10:46:02.320Z,3.05
2019-04-21T10:48:38.240Z,3.20
2019-04-21T10:51:13.427Z,3.22
2019-04-21T10:53:52.371Z,3.22
2019-04-21T10:56:31.307Z,3.10
2019-04-21T10:59:02.755Z,3.30
2019-04-21T11:01:38.905Z,2.72
2019-04-21T11:04:21.848Z,2.95
2019-04-21T11:06:57.081Z,2.67
2019-04-21T11:09:29.859Z,2.62
2019-04-21T11:12:06.148Z,2.70
2019-04-21T11:14:43.134Z,2.58
2019-04-21T11:17:18.215Z,2.40
2019-04-21T11:19:54.863Z,1.80
2019-04-21T11:22:35.270Z,2.00
2019-04-21T11:25:11.168Z,1.82
2019-04-21T11:27:47.051Z,1.98
2019-04-21T11:30:23.238Z,2.08
2019-04-21T11:32:59.313Z,2.80
2019-04-21T11:35:35.227Z,2.52
2019-04-21T11:38:23.595Z,2.15
2019-04-21T11:40:58.078Z,2.20
2019-04-21T11:43:36.961Z,2.02
2019-04-21T11:46:12.779Z,2.10
2019-04-21T11:48:48.340Z,1.95
2019-04-21T11:51:23.205Z,1.90
2019-04-21T11:53:59.180Z,1.90
2019-04-21T11:56:34.812Z,2.42
2019-04-21T11:59:09.978Z,2.58
2019-04-21T12:01:45.681Z,2.15
2019-04-21T12:04:21.290Z,2.10
2019-04-21T12:06:57.711Z,1.90
2019-04-21T12:09:33.312Z,2.10
2019-04-21T12:12:09.526Z,1.95
2019-04-21T12:14:44.344Z,1.87
2019-04-21T12:17:20.336Z,2.27
2019-04-21T12:19:55.180Z,2.40
2019-04-21T12:22:32.509Z,1.80
2019-04-21T12:25:09.343Z,1.70
2019-04-21T12:27:44.104Z,1.65
2019-04-21T12:30:19.864Z,1.80
2019-04-21T12:33:00.131Z,1.90
2019-04-21T12:35:35.638Z,1.70
2019-04-21T12:38:10.969Z,1.87
2019-04-21T12:40:46.545Z,1.40
2019-04-21T12:43:21.501Z,1.70
2019-04-21T12:45:56.355Z,1.90
2019-04-21T12:48:31.776Z,1.82
2019-04-21T12:51:07.790Z,1.40
2019-04-21T12:53:43.495Z,1.70
2019-04-21T12:56:18.310Z,1.50
2019-04-21T12:58:53.301Z,1.47
2019-04-21T13:01:28.194Z,1.75
2019-04-21T13:04:03.917Z,1.15
2019-04-21T13:06:39.411Z,1.80
2019-04-21T13:09:17.968Z,1.40
2019-04-21T13:11:51.008Z,1.40
2019-04-21T13:14:26.123Z,1.55
2019-04-21T13:17:01.870Z,1.20
2019-04-21T13:19:36.488Z,1.50
2019-04-21T13:22:14.291Z,1.40
2019-04-21T13:24:49.638Z,1.20
2019-04-21T13:27:24.830Z,1.20
2019-04-21T13:30:00.067Z,1.50
2019-04-21T13:32:35.278Z,1.27
2019-04-21T13:35:13.251Z,1.10
2019-04-21T13:37:50.551Z,1.22
2019-04-21T13:40:57.078Z,1.47
2019-04-21T13:43:18.898Z,1.57
2019-04-21T13:45:54.043Z,1.47
2019-04-21T13:48:28.898Z,1.50
2019-04-21T13:51:04.927Z,1.30
2019-04-21T13:53:39.969Z,1.42
2019-04-21T13:56:16.192Z,1.60
2019-04-21T13:58:52.275Z,1.67
2019-04-21T14:01:27.708Z,1.42
2019-04-21T14:04:05.188Z,1.52
2019-04-21T14:06:40.464Z,1.47
2019-04-21T14:09:15.706Z,1.40
2019-04-21T14:11:53.533Z,1.50
2019-04-21T14:14:28.634Z,1.37
2019-04-21T14:17:05.551Z,1.57
2019-04-21T14:19:41.599Z,1.22
2019-04-21T14:22:18.102Z,1.30
2019-04-21T14:24:54.097Z,1.30
2019-04-21T14:27:30.074Z,1.60
2019-04-21T14:30:08.427Z,1.42
2019-04-21T14:32:44.289Z,1.30
2019-04-21T14:35:21.038Z,1.65
2019-04-21T14:37:56.549Z,1.45
2019-04-21T14:40:33.726Z,1.50
2019-04-21T14:43:08.158Z,1.42
2019-04-21T14:46:03.748Z,1.72
2019-04-21T14:48:57.226Z,1.27
2019-04-21T14:51:50.075Z,1.65
2019-04-21T14:54:33.107Z,1.22
2019-04-21T14:57:09.201Z,1.30
2019-04-21T14:59:44.866Z,1.35
2019-04-21T15:02:20.268Z,1.30
2019-04-21T15:04:55.631Z,1.40
2019-04-21T15:07:30.929Z,1.20
2019-04-21T15:10:14.207Z,1.22
2019-04-21T15:12:43.774Z,1.05
2019-04-21T15:15:18.526Z,1.50
2019-04-21T15:17:53.551Z,1.27
2019-04-21T15:20:28.695Z,1.30
2019-04-21T15:23:04.261Z,1.27
2019-04-21T15:25:39.136Z,1.50
2019-04-21T15:28:13.927Z,1.35
2019-04-21T15:30:48.687Z,1.60
2019-04-21T15:33:24.539Z,1.22
2019-04-21T15:36:00.700Z,1.52
2019-04-21T15:38:35.929Z,1.30
2019-04-21T15:41:12.630Z,1.70
2019-04-21T15:43:48.717Z,1.30
2019-04-21T15:46:24.740Z,1.52
2019-04-21T15:49:00.581Z,1.37
2019-04-21T15:51:35.786Z,1.42
2019-04-21T15:54:10.994Z,2.10
2019-04-21T15:57:02.836Z,1.60
2019-04-21T15:59:56.255Z,1.70
2019-04-21T16:02:42.390Z,1.42
2019-04-21T16:05:19.095Z,1.60
2019-04-21T16:07:56.183Z,1.30
2019-04-21T16:10:41.466Z,1.20
2019-04-21T16:13:09.690Z,1.60
2019-04-21T16:15:48.439Z,1.27
2019-04-21T16:18:24.417Z,1.40
2019-04-21T16:20:59.967Z,1.30
2019-04-21T16:23:36.079Z,1.55
2019-04-21T16:26:12.760Z,1.52
2019-04-21T16:28:49.087Z,1.65
2019-04-21T16:31:25.561Z,1.80
2019-04-21T16:34:01.020Z,1.75
2019-04-21T16:36:35.984Z,1.67
2019-04-21T16:39:11.573Z,1.82
2019-04-21T16:41:46.666Z,1.72
2019-04-21T16:44:22.976Z,1.70
2019-04-21T16:46:59.220Z,1.75
2019-04-21T16:49:34.175Z,1.85
2019-04-21T16:52:12.009Z,1.98
2019-04-21T16:54:56.032Z,2.10
2019-04-21T16:57:49.281Z,1.87
2019-04-21T17:00:34.804Z,2.23
2019-04-21T17:03:04.216Z,2.20
2019-04-21T17:05:40.275Z,2.12
2019-04-21T17:08:15.746Z,2.12
2019-04-21T17:11:04.016Z,1.72
2019-04-21T17:13:27.800Z,2.08
2019-04-21T17:16:27.329Z,1.80
2019-04-21T17:18:50.881Z,2.15
2019-04-21T17:21:16.802Z,2.00
2019-04-21T17:23:52.446Z,1.92
2019-04-21T17:26:29.013Z,2.22
2019-04-21T17:29:04.837Z,3.42
2019-04-21T17:31:41.306Z,2.33
2019-04-21T17:34:21.826Z,2.50
2019-04-21T17:36:54.964Z,2.15
2019-04-21T17:39:31.124Z,2.40
2019-04-21T17:42:18.596Z,1.70
2019-04-21T17:44:43.359Z,1.98
2019-04-21T17:47:28.911Z,2.00
2019-04-21T17:50:17.796Z,1.98
2019-04-21T17:53:05.024Z,1.60
2019-04-21T17:55:40.620Z,1.57
2019-04-21T17:58:27.858Z,1.80
2019-04-21T18:01:21.676Z,1.72
2019-04-21T18:03:58.705Z,1.70
2019-04-21T18:06:31.123Z,1.87
2019-04-21T18:09:18.274Z,1.55
2019-04-21T18:11:47.993Z,1.85
2019-04-21T18:14:02.832Z,1.42
2019-04-21T18:16:42.829Z,1.52
2019-04-21T18:19:19.365Z,1.40
2019-04-21T18:21:59.577Z,1.50
2019-04-21T18:24:38.883Z,1.90
2019-04-21T18:27:11.319Z,1.82
2019-04-21T18:29:46.493Z,1.35
2019-04-21T18:32:26.359Z,1.72
2019-04-21T18:35:14.059Z,1.45
2019-04-21T18:38:04.454Z,1.67
2019-04-21T18:40:36.529Z,1.55
2019-04-21T18:43:46.790Z,1.90
2019-04-21T18:46:25.974Z,1.50
2019-04-21T18:48:44.730Z,1.98
2019-04-21T18:51:32.713Z,2.00
2019-04-21T18:54:20.939Z,2.80
2019-04-21T18:59:16.370Z,2.00
2019-04-21T19:01:59.952Z,2.30
2019-04-21T19:04:33.342Z,1.90
2019-04-21T19:07:20.659Z,2.02
2019-04-21T19:10:22.530Z,2.12
2019-04-21T19:13:03.561Z,2.27
2019-04-21T19:15:12.283Z,5.90
2019-04-21T19:18:16.752Z,4.80
2019-04-21T19:20:30.054Z,4.95
2019-04-21T19:22:59.027Z,5.35
2019-04-21T19:25:41.233Z,6.70
2019-04-21T19:28:16.423Z,4.58
2019-04-21T19:31:04.358Z,3.45
2019-04-21T19:33:31.019Z,2.40
2019-04-21T19:35:55.262Z,2.05
2019-04-21T19:38:45.748Z,2.37
2019-04-21T19:41:25.713Z,2.30
2019-04-21T19:44:02.706Z,2.47
2019-04-21T19:46:38.039Z,2.90
2019-04-21T19:49:30.437Z,2.77
2019-04-21T19:51:50.459Z,2.27
2019-04-21T19:54:23.020Z,2.65
2019-04-21T19:56:51.482Z,2.92
2019-04-21T19:59:34.540Z,2.37
2019-04-21T20:02:02.763Z,2.30
2019-04-21T20:04:44.949Z,2.40
2019-04-21T20:07:26.328Z,2.15
2019-04-21T20:10:19.550Z,2.25
2019-04-21T20:12:46.948Z,2.20
2019-04-21T20:15:30.394Z,1.90
2019-04-21T20:17:59.506Z,1.90
2019-04-21T20:20:21.328Z,2.35
2019-04-21T20:22:57.493Z,2.12
2019-04-21T20:25:41.818Z,2.35
2019-04-21T20:28:21.207Z,3.52
2019-04-21T20:31:07.220Z,2.05
2019-04-21T20:36:23.786Z,2.87
2019-04-21T20:38:45.234Z,3.52
2019-04-21T20:41:32.233Z,3.55
2019-04-21T20:44:09.972Z,5.05
2019-04-21T20:46:40.293Z,5.50
2019-04-21T20:49:18.496Z,6.25
2019-04-21T20:52:01.617Z,6.83
2019-04-21T20:54:28.811Z,4.53
2019-04-21T20:57:07.472Z,4.45
2019-04-21T20:59:37.497Z,4.70
2019-04-21T21:02:19.015Z,6.45
2019-04-21T21:04:46.458Z,9.10
2019-04-21T21:07:53.806Z,4.65
2019-04-21T21:10:14.084Z,4.78
2019-04-21T21:12:57.340Z,3.30
2019-04-21T21:15:25.264Z,2.20
2019-04-21T21:18:06.288Z,3.80
2019-04-21T21:20:36.851Z,3.58
2019-04-21T21:23:11.529Z,4.00
2019-04-21T21:25:50.511Z,5.05
2019-04-21T21:28:29.080Z,3.90
2019-04-21T21:31:07.338Z,4.12
2019-04-21T21:33:54.206Z,5.33
2019-04-21T21:36:20.649Z,4.50
2019-04-21T21:38:54.642Z,3.35
2019-04-21T21:41:22.074Z,2.65
2019-04-21T21:44:00.732Z,2.35
2019-04-21T21:46:45.629Z,2.00
2019-04-21T21:49:22.644Z,2.05
2019-04-21T21:51:55.138Z,2.00
2019-04-21T21:54:18.009Z,1.72
2019-04-21T21:56:54.443Z,1.90
2019-04-21T21:59:32.454Z,1.82
2019-04-21T22:02:09.439Z,1.80
2019-04-21T22:04:51.079Z,1.82
2019-04-21T22:07:22.551Z,1.62
2019-04-21T22:09:54.936Z,1.75
2019-04-21T22:12:41.299Z,1.60
2019-04-21T22:15:12.626Z,1.80
2019-04-21T22:18:05.971Z,1.55
2019-04-21T22:20:40.151Z,1.87
2019-04-21T22:23:04.077Z,1.80
2019-04-21T22:25:34.786Z,1.82
2019-04-21T22:28:09.671Z,1.82
2019-04-21T22:30:48.267Z,2.95
2019-04-21T22:33:23.265Z,3.12
2019-04-21T22:36:05.467Z,3.00
2019-04-21T22:38:49.059Z,3.72
2019-04-21T22:41:22.082Z,3.17
2019-04-21T22:43:49.838Z,1.87
2019-04-21T22:46:26.248Z,2.10
2019-04-21T22:49:07.469Z,2.05
2019-04-21T22:51:43.195Z,2.35
2019-04-21T22:54:22.154Z,1.98
2019-04-21T22:56:58.626Z,3.25
2019-04-21T22:59:28.596Z,2.70
2019-04-21T23:02:06.339Z,2.80
2019-04-21T23:04:46.131Z,2.62
2019-04-21T23:07:20.618Z,2.20
2019-04-21T23:09:53.697Z,2.30
2019-04-21T23:12:34.580Z,3.83
2019-04-21T23:15:13.927Z,3.15
2019-04-21T23:18:00.846Z,4.37
2019-04-21T23:20:46.549Z,3.87
2019-04-21T23:23:16.316Z,2.98
2019-04-21T23:25:45.929Z,3.12
2019-04-21T23:28:34.560Z,3.40
2019-04-21T23:31:06.484Z,2.50
2019-04-21T23:33:25.717Z,2.40
2019-04-21T23:36:11.298Z,1.77
2019-04-21T23:38:44.218Z,3.45
2019-04-21T23:41:15.299Z,5.47
2019-04-21T23:43:55.668Z,5.90
2019-04-21T23:46:31.308Z,6.85
2019-04-21T23:49:19.781Z,5.72
2019-04-21T23:51:45.827Z,5.35
2019-04-21T23:54:17.398Z,4.50
2019-04-21T23:56:53.821Z,3.70
2019-04-21T23:59:32.438Z,3.50
